Time;durP1;ratioP1;P1;durP2;ratioP2;P2;SDS_P1;SDS_P2;PMS_P1;PMS_P2;Temp;Humidity;BMP_temperature;BMP_pressure;BME280_temperature;BME280_humidity;BME280_pressure;Samples;Min_cycle;Max_cycle;Signal;HPM_P1;HPM_P2
2022/04/03 00:00:28;;;;;;;9.80;4.57;;;;;;;5.25;70.69;96533.56;10335272;28;19952;-61
2022/04/03 00:05:28;;;;;;;26.52;12.55;;;;;;;5.07;71.13;96545.56;10336197;28;20080;-61
2022/04/03 00:10:27;;;;;;;9.27;3.30;;;;;;;5.02;70.98;96555.00;10338403;28;20068;-61
2022/04/03 00:15:26;;;;;;;11.68;3.58;;;;;;;4.33;71.48;96462.31;10337894;28;20495;-61
2022/04/03 00:20:25;;;;;;;6.68;3.47;;;;;;;4.85;71.29;96567.78;10337561;28;20068;-61
2022/04/03 00:25:24;;;;;;;7.82;4.10;;;;;;;4.88;70.99;96575.50;10337633;28;20506;-61
2022/04/03 00:30:23;;;;;;;9.85;4.63;;;;;;;4.76;71.41;96572.91;10337164;28;20109;-61
2022/04/03 00:35:22;;;;;;;11.18;5.78;;;;;;;4.89;71.29;96581.50;10337041;28;20087;-61
2022/04/03 00:40:23;;;;;;;8.55;3.90;;;;;;;4.95;70.92;96575.53;10337258;28;20025;-61
2022/04/03 00:45:23;;;;;;;9.05;4.65;;;;;;;5.01;70.87;96578.97;10334734;28;20034;-61
2022/04/03 00:50:22;;;;;;;;;;;;;;;5.10;70.84;96591.84;10336959;28;20083;-61
2022/04/03 00:55:21;;;;;;;7.95;4.13;;;;;;;4.16;70.86;96436.59;10336818;28;19909;-61
2022/04/03 01:00:20;;;;;;;7.63;4.25;;;;;;;5.24;71.08;96588.44;10336627;28;20029;-61
2022/04/03 01:05:19;;;;;;;9.98;4.38;;;;;;;4.99;70.96;96521.53;10334678;28;20464;-61
2022/04/03 01:10:18;;;;;;;6.65;4.05;;;;;;;4.69;70.40;96466.66;10332732;28;20495;-61
2022/04/03 01:15:18;;;;;;;7.72;4.53;;;;;;;5.43;70.25;96605.59;10332165;28;20065;-61
2022/04/03 01:20:18;;;;;;;10.13;3.88;;;;;;;5.52;69.93;96600.47;10331520;28;20072;-61
2022/04/03 01:25:17;;;;;;;11.13;4.70;;;;;;;4.67;70.60;96441.81;10331759;28;20064;-62
2022/04/03 01:30:16;;;;;;;10.98;4.82;;;;;;;5.42;71.18;96582.47;10331624;28;20072;-62
2022/04/03 01:35:15;;;;;;;13.07;4.47;;;;;;;5.47;70.83;96589.31;10331242;28;20104;-61
2022/04/03 01:40:14;;;;;;;12.00;6.30;;;;;;;5.50;70.76;96576.44;10331442;28;20053;-61
2022/04/03 01:45:13;;;;;;;11.52;4.03;;;;;;;5.54;70.65;96585.88;10331437;28;20030;-63
2022/04/03 01:50:12;;;;;;;23.63;14.30;;;;;;;5.66;70.24;96581.59;10330869;28;20072;-61
2022/04/03 01:55:11;;;;;;;12.82;5.95;;;;;;;5.81;70.15;96573.00;10330147;28;20048;-61
2022/04/03 02:00:11;;;;;;;9.27;5.38;;;;;;;5.55;71.13;96523.28;10330442;28;20024;-61
2022/04/03 02:05:11;;;;;;;7.18;4.20;;;;;;;5.71;71.69;96560.13;10330454;28;20423;-61
2022/04/03 02:10:12;;;;;;;;;;;;;;;5.73;72.78;96579.00;10331424;28;20072;-61
2022/04/03 02:15:11;;;;;;;7.90;4.57;;;;;;;5.40;73.02;96536.16;10330101;28;19963;-61
2022/04/03 02:20:10;;;;;;;;;;;;;;;5.58;73.65;96553.31;10342708;28;20061;-61
2022/04/03 02:25:11;;;;;;;8.32;4.30;;;;;;;4.94;73.56;96469.28;10344760;28;19912;-61
2022/04/03 02:30:10;;;;;;;7.43;4.53;;;;;;;5.50;72.88;96561.00;10343815;28;20072;-61
2022/04/03 02:35:11;;;;;;;7.90;4.72;;;;;;;5.08;73.29;96500.97;10343452;28;20075;-61
2022/04/03 02:40:16;;;;;;;9.23;3.97;;;;;;;4.90;73.18;96486.41;10343211;28;20499;-61
2022/04/03 02:45:15;;;;;;;5.50;3.08;;;;;;;5.10;73.52;96522.41;10343738;28;20065;-61
2022/04/03 02:50:16;;;;;;;4.93;3.42;;;;;;;5.09;73.98;96536.16;10343078;28;20041;-61
2022/04/03 02:55:16;;;;;;;6.18;3.40;;;;;;;5.10;74.14;96555.84;10343062;28;20066;-61
2022/04/03 03:00:15;;;;;;;5.20;3.05;;;;;;;5.03;74.58;96548.97;10343575;28;20057;-61
2022/04/03 03:05:15;;;;;;;5.78;3.17;;;;;;;4.99;75.15;96567.81;10344157;28;20068;-61
2022/04/03 03:10:16;;;;;;;6.05;3.22;;;;;;;4.92;75.60;96556.66;10346056;28;20072;-61
2022/04/03 03:15:15;;;;;;;5.72;3.40;;;;;;;4.87;75.50;96560.91;10346527;28;20064;-61
2022/04/03 03:20:15;;;;;;;7.40;4.88;;;;;;;4.48;75.44;96500.88;10346044;28;20068;-61
2022/04/03 03:25:14;;;;;;;9.85;4.75;;;;;;;4.63;75.79;96536.03;10345817;28;20070;-61
2022/04/03 03:30:13;;;;;;;8.70;5.47;;;;;;;4.79;75.91;96561.78;10342308;28;20029;-61
2022/04/03 03:35:13;;;;;;;13.77;8.48;;;;;;;4.53;77.72;96567.69;10339300;28;20073;-61
2022/04/03 03:40:14;;;;;;;12.75;7.70;;;;;;;4.36;77.87;96575.34;10339303;28;20049;-61
2022/04/03 03:45:14;;;;;;;16.85;10.50;;;;;;;4.05;79.05;96570.03;10339510;28;20055;-61
2022/04/03 03:50:14;;;;;;;20.15;11.80;;;;;;;4.01;79.34;96581.16;10338746;28;20080;-61
2022/04/03 03:55:13;;;;;;;13.27;8.00;;;;;;;3.44;80.53;96528.59;10338720;28;20068;-60
2022/04/03 04:00:14;;;;;;;11.85;7.82;;;;;;;3.61;80.12;96582.56;10339199;28;20101;-60
2022/04/03 04:05:13;;;;;;;15.48;8.98;;;;;;;3.61;79.76;96593.72;10336630;28;20080;-61
2022/04/03 04:10:13;;;;;;;20.58;10.68;;;;;;;3.64;79.44;96618.53;10334248;28;20065;-61
2022/04/03 04:15:14;;;;;;;14.77;9.43;;;;;;;3.59;79.86;96620.19;10334723;28;20069;-61
2022/04/03 04:20:17;;;;;;;12.98;10.07;;;;;;;3.76;79.16;96636.56;10333977;28;20061;-60
2022/04/03 04:25:19;;;;;;;18.50;11.05;;;;;;;3.75;80.04;96650.25;10334053;28;20068;-61
2022/04/03 04:30:18;;;;;;;15.32;11.27;;;;;;;3.88;79.21;96661.47;10334133;28;20079;-61
2022/04/03 04:35:17;;;;;;;19.23;11.07;;;;;;;3.55;79.54;96611.59;10333669;28;20068;-61
2022/04/03 04:40:16;;;;;;;20.90;14.55;;;;;;;3.97;79.91;96688.91;10322402;28;20073;-61
2022/04/03 04:45:15;;;;;;;23.52;13.30;;;;;;;3.97;79.94;96696.63;10333223;28;20407;-61
2022/04/03 04:50:15;;;;;;;21.17;14.10;;;;;;;3.57;80.17;96602.22;10333161;28;20075;-61
2022/04/03 04:55:14;;;;;;;18.55;10.95;;;;;;;4.16;80.10;96680.50;10332485;28;20523;-61
2022/04/03 05:00:14;;;;;;;14.27;8.85;;;;;;;4.44;80.04;96704.63;10333026;28;20067;-61
2022/04/03 05:05:14;;;;;;;11.10;7.45;;;;;;;4.62;79.67;96715.88;10332549;28;20482;-61
2022/04/03 05:10:15;;;;;;;10.05;6.72;;;;;;;4.83;79.68;96713.44;10331909;28;20065;-61
2022/04/03 05:15:14;;;;;;;11.38;6.03;;;;;;;5.06;78.80;96718.72;10331467;28;20566;-61
2022/04/03 05:20:14;;;;;;;6.25;4.13;;;;;;;5.42;78.55;96732.53;10328468;28;20065;-61
2022/04/03 05:25:13;;;;;;;8.70;5.00;;;;;;;5.45;72.59;96687.94;10329054;28;20073;-61
2022/04/03 05:30:14;;;;;;;4.18;3.10;;;;;;;6.11;72.19;96729.19;10329171;28;20029;-61
2022/04/03 05:35:13;;;;;;;10.30;4.93;;;;;;;6.20;71.39;96682.81;10330964;28;20096;-61
2022/04/03 05:40:13;;;;;;;5.43;2.47;;;;;;;6.38;68.65;96684.53;10331431;28;20061;-61
2022/04/03 05:45:12;;;;;;;5.10;1.70;;;;;;;6.87;67.44;96738.56;10330816;28;20079;-61
2022/04/03 05:50:14;;;;;;;3.85;1.83;;;;;;;7.11;65.72;96732.44;10331190;28;20085;-61
2022/04/03 05:55:16;;;;;;;6.75;1.90;;;;;;;7.34;61.08;96739.25;10315518;28;20622;-61
2022/04/03 06:00:17;;;;;;;4.32;1.48;;;;;;;7.59;61.26;96745.16;10326780;28;20060;-61
2022/04/03 06:05:22;;;;;;;4.55;1.60;;;;;;;7.46;57.97;96700.50;10332232;28;20069;-62
2022/04/03 06:10:24;;;;;;;2.25;1.30;;;;;;;7.97;57.76;96742.34;10333487;28;20069;-62
2022/04/03 06:15:24;;;;;;;1.55;1.10;;;;;;;8.18;54.34;96756.84;10333782;28;20073;-62
2022/04/03 06:20:23;;;;;;;3.17;1.25;;;;;;;8.15;51.97;96738.75;10314526;28;20530;-62
2022/04/03 06:25:23;;;;;;;3.20;1.48;;;;;;;8.26;50.06;96756.75;10317299;28;20061;-62
2022/04/03 06:30:22;;;;;;;2.10;1.08;;;;;;;8.39;47.49;96767.84;10324002;28;20510;-62
2022/04/03 06:35:21;;;;;;;;;;;;;;;8.56;46.50;96767.72;10330946;28;20068;-62
2022/04/03 06:40:20;;;;;;;4.28;1.17;;;;;;;8.47;45.09;96772.09;10333211;28;19956;-62
2022/04/03 06:45:19;;;;;;;1.45;0.80;;;;;;;8.30;45.34;96733.47;10332850;28;20499;-63
2022/04/03 06:50:20;;;;;;;3.30;1.40;;;;;;;8.76;46.46;96785.63;10333512;28;20069;-61
2022/04/03 06:55:20;;;;;;;3.40;1.25;;;;;;;8.76;46.43;96786.47;10333014;28;20474;-62
2022/04/03 07:00:19;;;;;;;2.15;1.02;;;;;;;8.60;45.38;96738.34;10307608;28;20114;-62
2022/04/03 07:05:18;;;;;;;6.53;1.58;;;;;;;8.93;44.24;96774.25;10296100;28;20470;-62
2022/04/03 07:10:17;;;;;;;2.95;1.40;;;;;;;9.38;44.03;96796.25;10296878;28;20484;-62
2022/04/03 07:15:16;;;;;;;3.03;1.20;;;;;;;9.25;43.90;96754.91;10296289;28;20037;-62
2022/04/03 07:20:15;;;;;;;1.50;1.23;;;;;;;9.81;42.35;96819.00;10296731;28;20034;-62
2022/04/03 07:25:14;;;;;;;5.85;1.33;;;;;;;9.37;42.04;96707.34;10295758;28;20479;-62
2022/04/03 07:30:13;;;;;;;5.00;1.60;;;;;;;10.41;41.83;96837.19;10291953;28;20100;-62
2022/04/03 07:35:12;;;;;;;4.63;1.17;;;;;;;10.10;38.71;96762.47;10292397;28;20091;-62
2022/04/03 07:40:11;;;;;;;7.70;2.75;;;;;;;9.93;40.45;96717.78;10291944;28;20044;-62
2022/04/03 07:45:11;;;;;;;4.50;0.90;;;;;;;10.22;40.83;96804.63;10295129;28;20096;-62
2022/04/03 07:50:10;;;;;;;;;;;;;;;10.55;38.11;96858.56;10295353;28;20081;-62
2022/04/03 07:55:10;;;;;;;17.45;11.57;;;;;;;9.82;38.10;96793.09;10295016;28;19960;-62
2022/04/03 08:00:11;;;;;;;3.60;1.90;;;;;;;10.26;40.70;96814.94;10294921;28;20061;-62
2022/04/03 08:05:11;;;;;;;3.70;1.23;;;;;;;10.69;39.16;96860.09;10294718;28;20069;-62
2022/04/03 08:10:12;;;;;;;2.20;1.15;;;;;;;10.71;38.18;96827.22;10294150;28;20072;-62
2022/04/03 08:15:13;;;;;;;3.08;1.23;;;;;;;10.80;37.32;96793.31;10292899;28;20488;-62
2022/04/03 08:20:16;;;;;;;3.45;1.80;;;;;;;11.25;35.74;96864.38;10294154;28;20076;-62
2022/04/03 08:25:16;;;;;;;4.90;2.28;;;;;;;10.86;36.67;96806.19;10293419;28;20057;-62
2022/04/03 08:30:24;;;;;;;3.75;2.40;;;;;;;11.35;36.83;96865.06;10293792;28;20057;-62
2022/04/03 08:35:26;;;;;;;5.93;3.60;;;;;;;10.65;36.39;96816.94;10293353;28;20488;-62
2022/04/03 08:40:26;;;;;;;10.63;5.45;;;;;;;10.57;38.64;96807.53;10293127;28;20061;-62
2022/04/03 08:45:26;;;;;;;8.80;6.00;;;;;;;11.08;37.77;96882.00;10292681;28;20068;-62
2022/04/03 08:50:30;;;;;;;7.05;4.75;;;;;;;11.08;37.10;96878.53;10292605;28;20069;-62
2022/04/03 08:55:30;;;;;;;1.48;1.10;;;;;;;11.46;36.99;96880.44;10293119;28;20065;-62
2022/04/03 09:00:31;;;;;;;2.35;1.63;;;;;;;11.97;36.00;96882.03;10292201;28;20061;-62
2022/04/03 09:05:38;;;;;;;14.10;10.15;;;;;;;12.17;35.71;96879.88;10292161;28;20062;-62
2022/04/03 09:10:37;;;;;;;26.10;15.85;;;;;;;12.04;36.00;96886.22;10292097;28;20065;-62
2022/04/03 09:15:37;;;;;;;6.32;4.57;;;;;;;11.55;36.54;96814.44;10291839;28;20069;-62
2022/04/03 09:20:37;;;;;;;14.82;9.40;;;;;;;11.60;35.50;96807.44;10290695;28;20069;-62
2022/04/03 09:25:40;;;;;;;19.42;11.20;;;;;;;12.18;36.12;96872.94;10290697;28;20104;-62
2022/04/03 09:30:45;;;;;;;14.32;7.65;;;;;;;12.18;36.86;96897.22;10290968;28;20053;-62
2022/04/03 09:36:01;;;;;;;6.13;4.10;;;;;;;12.26;35.59;96910.91;10291129;28;20072;-62
2022/04/03 09:41:01;;;;;;;7.00;4.47;;;;;;;12.21;37.60;96917.09;10291143;28;20061;-62
2022/04/03 09:46:04;;;;;;;3.42;1.50;;;;;;;11.63;37.43;96908.72;10290573;28;20077;-62
2022/04/03 09:51:07;;;;;;;2.28;1.30;;;;;;;10.94;41.21;96856.28;10290557;28;20076;-61
2022/04/03 09:56:09;;;;;;;2.53;1.85;;;;;;;11.74;43.34;96935.34;10291274;28;20066;-61
2022/04/03 10:01:36;;;;;;;25.27;15.57;;;;;;;12.15;43.00;96941.47;10290282;28;20531;-62
2022/04/03 10:06:36;;;;;;;17.33;10.05;;;;;;;12.07;41.42;96910.44;10290329;28;20598;-62
2022/04/03 10:11:35;;;;;;;48.15;33.13;;;;;;;12.22;38.99;96909.25;10290243;28;20061;-62
2022/04/03 10:16:35;;;;;;;17.88;13.30;;;;;;;12.16;39.94;96835.69;10290339;28;20038;-62
2022/04/03 10:21:42;;;;;;;15.05;10.90;;;;;;;13.23;36.46;96915.66;10290031;28;20069;-62
2022/04/03 10:26:46;;;;;;;8.63;5.88;;;;;;;13.28;35.60;96924.22;10286160;28;20076;-62
2022/04/03 10:31:56;;;;;;;6.40;2.92;;;;;;;12.80;35.01;96929.72;10289889;28;20069;-62
2022/04/03 10:36:56;;;;;;;9.57;4.93;;;;;;;12.13;36.23;96867.84;10289535;28;20464;-62
2022/04/03 10:42:20;;;;;;;7.55;5.18;;;;;;;12.84;37.12;96965.22;10297380;28;20065;-62
2022/04/03 10:47:20;;;;;;;6.70;4.93;;;;;;;12.76;36.79;96936.72;10297308;28;20092;-62
2022/04/03 10:52:21;;;;;;;;;;;;;;;13.11;35.78;96954.13;10297733;28;20542;-62
2022/04/03 10:57:44;;;;;;;15.15;13.40;;;;;;;13.37;35.10;96923.97;10297877;28;19965;-62
2022/04/03 11:02:58;;;;;;;6.72;4.45;;;;;;;13.44;35.05;96852.56;10297203;28;20065;-62
2022/04/03 11:08:00;;;;;;;3.85;3.47;;;;;;;14.49;33.96;96944.41;10298987;28;20065;-62
2022/04/03 11:12:59;;;;;;;7.30;5.45;;;;;;;14.26;31.64;96910.28;10299791;28;20448;-62
2022/04/03 11:17:58;;;;;;;5.82;4.45;;;;;;;13.37;31.52;96929.19;10299886;28;20475;-62
2022/04/03 11:22:58;;;;;;;3.88;1.80;;;;;;;12.17;32.04;96850.44;10299709;28;20053;-62
2022/04/03 11:27:58;;;;;;;8.95;6.78;;;;;;;11.84;34.08;96863.25;10286163;28;20159;-63
2022/04/03 11:32:58;;;;;;;4.32;3.65;;;;;;;12.19;35.24;96888.50;10310334;28;20074;-62
2022/04/03 11:37:57;;;;;;;3.97;3.40;;;;;;;12.20;33.12;96874.59;10303237;28;20076;-62
2022/04/03 11:43:12;;;;;;;5.20;3.38;;;;;;;12.70;33.30;96924.72;10304349;28;20065;-63
2022/04/03 11:48:23;;;;;;;7.85;6.88;;;;;;;12.83;33.83;96951.31;10312607;28;20528;-62
2022/04/03 11:53:23;;;;;;;18.48;13.85;;;;;;;12.95;32.67;96958.00;10297333;28;20461;-62
2022/04/03 11:58:55;;;;;;;8.05;5.80;;;;;;;13.09;33.95;96961.16;10298238;28;20065;-63
2022/04/03 12:04:08;;;;;;;20.63;15.20;;;;;;;12.97;32.38;96963.19;10325932;28;20061;-62
2022/04/03 12:09:13;;;;;;;5.15;3.38;;;;;;;12.72;32.89;96912.53;10335405;28;20061;-62
2022/04/03 12:14:21;;;;;;;10.00;4.85;;;;;;;12.62;35.07;96924.03;10334418;28;20103;-62
2022/04/03 12:19:20;;;;;;;7.88;3.67;;;;;;;12.33;37.24;96981.91;10332855;28;20071;-63
2022/04/03 12:24:21;;;;;;;;;;;;;;;11.87;37.56;96986.22;10319657;28;20057;-62
2022/04/03 12:29:22;;;;;;;3.28;2.40;;;;;;;11.73;37.28;96985.63;10293309;28;20387;-62
2022/04/03 12:34:21;;;;;;;5.97;4.07;;;;;;;11.49;37.61;96994.69;10292837;28;20065;-63
2022/04/03 12:39:37;;;;;;;16.70;13.02;;;;;;;11.62;37.01;96984.97;10293515;28;20522;-62
2022/04/03 12:44:59;;;;;;;8.88;4.57;;;;;;;11.49;36.69;96999.91;10287502;28;20092;-62
2022/04/03 12:50:13;;;;;;;5.97;3.97;;;;;;;11.13;38.45;97001.38;10333789;28;20169;-62
2022/04/03 12:55:24;;;;;;;2.97;2.50;;;;;;;10.40;38.10;97004.03;10332989;28;20517;-63
2022/04/03 13:00:25;;;;;;;5.63;3.83;;;;;;;10.72;38.49;96994.97;10331552;28;20076;-62
2022/04/03 13:05:32;;;;;;;6.25;4.35;;;;;;;10.61;38.59;97016.75;10333346;28;20061;-62
2022/04/03 13:10:31;;;;;;;3.67;2.97;;;;;;;10.89;40.09;96948.91;10332287;28;20069;-62
2022/04/03 13:15:29;;;;;;;2.78;2.30;;;;;;;11.67;41.66;96978.78;10323993;28;20043;-62
2022/04/03 13:20:28;;;;;;;2.67;1.80;;;;;;;12.52;42.64;97011.88;10332712;28;20120;-62
2022/04/03 13:25:27;;;;;;;2.55;2.10;;;;;;;12.36;41.58;96915.94;10332014;28;20043;-63
2022/04/03 13:30:31;;;;;;;4.25;2.42;;;;;;;12.92;41.51;97010.16;10331138;28;20451;-62
2022/04/03 13:35:30;;;;;;;3.38;1.90;;;;;;;13.16;41.33;97008.72;10331880;28;20072;-62
2022/04/03 13:40:29;;;;;;;3.22;1.80;;;;;;;13.24;40.90;97005.97;10331348;28;20069;-62
2022/04/03 13:50:46;;;;;;;2.97;2.00;;;;;;;13.05;39.72;96985.56;10329582;28;20503;-62
2022/04/03 13:55:46;;;;;;;6.70;4.13;;;;;;;12.70;39.95;96926.47;10330833;28;20068;-62
2022/04/03 14:00:45;;;;;;;40.33;26.08;;;;;;;12.62;39.16;96904.94;10330281;28;20121;-62
2022/04/03 14:05:45;;;;;;;6.30;3.10;;;;;;;12.79;38.07;97027.81;10331478;28;20434;-62
2022/04/03 14:10:47;;;;;;;7.97;5.80;;;;;;;12.94;38.94;97039.63;10330437;28;20264;-62
2022/04/03 14:15:48;;;;;;;7.82;5.28;;;;;;;12.17;38.09;96990.88;10328783;28;20064;-62
2022/04/03 14:20:47;;;;;;;7.85;6.05;;;;;;;11.99;38.96;97051.88;10330648;28;20527;-62
2022/04/03 14:25:47;;;;;;;8.05;5.70;;;;;;;10.99;40.08;96994.63;10329677;28;20068;-62
2022/04/03 14:30:46;;;;;;;7.10;5.35;;;;;;;10.91;40.08;97035.41;10329016;28;20495;-62
2022/04/03 14:35:45;;;;;;;7.65;5.28;;;;;;;9.98;41.35;96975.16;10328647;28;20504;-62
2022/04/03 14:40:45;;;;;;;7.68;6.30;;;;;;;9.94;42.57;97056.41;10330220;28;20088;-62
2022/04/03 14:45:44;;;;;;;9.70;6.18;;;;;;;9.95;43.14;97097.84;10326875;28;20087;-62
2022/04/03 14:50:44;;;;;;;11.15;7.95;;;;;;;9.72;44.66;97086.81;10286323;28;20073;-62
2022/04/03 14:55:43;;;;;;;11.77;7.97;;;;;;;9.50;45.00;97101.69;10286220;28;20069;-62
2022/04/03 15:00:45;;;;;;;13.55;9.27;;;;;;;9.13;45.45;97113.09;10285158;28;20571;-62
2022/04/03 15:05:44;;;;;;;11.45;7.55;;;;;;;9.04;46.45;97127.81;10286138;28;20075;-62
2022/04/03 15:10:43;;;;;;;14.20;9.23;;;;;;;8.78;46.83;97126.22;10286095;28;20030;-62
2022/04/03 15:15:42;;;;;;;12.30;8.30;;;;;;;8.79;46.96;97159.00;10287682;28;20029;-62
2022/04/03 15:20:41;;;;;;;14.15;8.77;;;;;;;8.57;47.56;97167.66;10288777;28;20065;-62
2022/04/03 15:25:40;;;;;;;13.48;8.35;;;;;;;8.36;47.42;97138.41;10292153;28;20026;-62
2022/04/03 15:30:39;;;;;;;14.15;11.13;;;;;;;8.36;47.82;97128.06;10293968;28;20060;-62
2022/04/03 15:35:38;;;;;;;18.40;15.52;;;;;;;8.49;47.17;97129.75;10295926;28;20116;-62
2022/04/03 15:40:37;;;;;;;14.10;10.57;;;;;;;8.84;46.77;97196.06;10295514;28;20854;-62
2022/04/03 15:45:36;;;;;;;13.98;10.10;;;;;;;8.86;47.24;97186.56;10293398;28;20052;-62
2022/04/03 15:50:35;;;;;;;17.48;13.07;;;;;;;8.65;47.01;97181.47;10295291;28;20054;-61
2022/04/03 15:55:34;;;;;;;16.73;11.48;;;;;;;8.71;47.22;97189.19;10294028;28;20034;-61
2022/04/03 16:00:33;;;;;;;;;;;;;;;8.70;47.44;97215.94;10294412;28;20169;-61
2022/04/03 16:05:32;;;;;;;13.25;10.27;;;;;;;8.23;47.76;97209.09;10295496;28;20008;-62
2022/04/03 16:10:32;;;;;;;16.75;12.40;;;;;;;7.80;47.80;97183.25;10297200;28;20065;-61
2022/04/03 16:15:32;;;;;;;16.45;10.98;;;;;;;7.54;48.96;97202.13;10295601;28;20068;-62
2022/04/03 16:20:34;;;;;;;14.85;11.45;;;;;;;7.08;48.65;97175.31;10297540;28;20061;-62
2022/04/03 16:25:33;;;;;;;15.57;11.45;;;;;;;7.45;49.40;97300.22;10297236;28;20550;-62
2022/04/03 16:30:32;;;;;;;16.15;11.23;;;;;;;6.37;49.57;97170.69;10296572;28;20069;-61
2022/04/03 16:35:33;;;;;;;19.77;13.02;;;;;;;6.78;50.62;97250.00;10296330;28;20042;-61
2022/04/03 16:40:32;;;;;;;18.42;12.93;;;;;;;7.04;51.88;97319.78;10296736;28;20061;-61
2022/04/03 16:45:31;;;;;;;17.10;13.30;;;;;;;5.98;54.87;97244.25;10295720;28;20069;-62
2022/04/03 16:50:31;;;;;;;26.00;16.75;;;;;;;5.90;56.19;97299.09;10296479;28;20065;-61
2022/04/03 16:55:30;;;;;;;;;;;;;;;6.13;57.05;97371.47;10296532;28;20089;-61
2022/04/03 17:00:29;;;;;;;21.40;14.68;;;;;;;5.71;57.94;97341.81;10295196;28;20281;-61
2022/04/03 17:05:27;;;;;;;24.40;17.00;;;;;;;5.48;59.52;97308.06;10295533;28;20531;-61
2022/04/03 17:10:27;;;;;;;25.75;18.58;;;;;;;4.96;59.09;97228.56;10291863;28;20511;-61
2022/04/03 17:15:27;;;;;;;26.13;17.92;;;;;;;5.78;59.75;97365.94;10291407;28;20062;-61
2022/04/03 17:20:26;;;;;;;25.70;16.95;;;;;;;5.95;59.14;97403.91;10291063;28;20065;-61
2022/04/03 17:25:25;;;;;;;30.48;20.67;;;;;;;5.85;59.59;97381.44;10291926;28;20494;-62
2022/04/03 17:30:24;;;;;;;25.65;18.55;;;;;;;5.89;59.36;97383.22;10290503;28;20029;-61
2022/04/03 17:35:23;;;;;;;19.90;13.40;;;;;;;6.17;57.62;97445.38;10291025;28;20069;-62
2022/04/03 17:40:22;;;;;;;18.60;13.45;;;;;;;6.17;56.20;97448.78;10291815;28;20108;-61
2022/04/03 17:45:21;;;;;;;24.45;15.10;;;;;;;6.13;54.70;97462.47;10291682;28;20076;-62
2022/04/03 17:50:20;;;;;;;19.17;14.50;;;;;;;6.16;55.31;97464.22;10290146;28;20064;-62
2022/04/03 17:55:21;;;;;;;23.80;17.30;;;;;;;6.12;54.15;97452.19;10291267;28;20069;-62
2022/04/03 18:00:23;;;;;;;26.10;18.73;;;;;;;6.10;53.90;97495.09;10287756;28;20057;-62
2022/04/03 18:05:22;;;;;;;22.73;16.48;;;;;;;5.81;53.94;97468.94;10289817;28;20060;-62
2022/04/03 18:10:21;;;;;;;21.70;14.98;;;;;;;5.97;53.79;97502.63;10290878;28;20182;-62
2022/04/03 18:15:20;;;;;;;20.33;14.60;;;;;;;6.08;53.67;97549.16;10289606;28;20065;-62
2022/04/03 18:20:24;;;;;;;20.75;14.68;;;;;;;5.34;54.24;97452.00;10290230;28;20084;-62
2022/04/03 18:25:23;;;;;;;22.98;14.65;;;;;;;5.65;53.83;97578.56;10289932;28;20077;-62
2022/04/03 18:30:22;;;;;;;23.13;15.98;;;;;;;4.64;55.62;97457.72;10288874;28;20038;-62
2022/04/03 18:35:21;;;;;;;26.58;18.70;;;;;;;5.44;56.95;97603.13;10290087;28;20044;-62
2022/04/03 18:40:20;;;;;;;27.80;18.70;;;;;;;4.99;58.72;97560.31;10288735;28;20032;-62
2022/04/03 18:45:19;;;;;;;23.25;15.50;;;;;;;5.04;61.14;97634.97;10289018;28;20026;-62
2022/04/03 18:50:18;;;;;;;25.10;17.67;;;;;;;4.68;62.99;97611.13;10289841;28;20057;-62
2022/04/03 18:55:17;;;;;;;21.65;15.48;;;;;;;4.80;63.59;97666.19;10289149;28;20479;-61
2022/04/03 19:00:21;;;;;;;28.45;19.08;;;;;;;4.55;64.16;97655.44;10291995;28;20582;-61
2022/04/03 19:05:19;;;;;;;24.63;15.82;;;;;;;4.62;64.63;97677.84;10299523;28;20061;-61
2022/04/03 19:10:19;;;;;;;25.90;19.00;;;;;;;4.25;64.91;97635.06;10300145;28;20025;-61
2022/04/03 19:15:18;;;;;;;23.98;16.77;;;;;;;4.65;65.83;97702.75;10299524;28;20072;-61
2022/04/03 19:20:17;;;;;;;26.48;17.60;;;;;;;4.14;65.16;97629.69;10299959;28;20458;-61
2022/04/03 19:25:16;;;;;;;24.05;17.38;;;;;;;4.77;65.46;97717.56;10299620;28;20484;-61
2022/04/03 19:30:16;;;;;;;33.55;21.80;;;;;;;4.77;65.34;97692.72;10299273;28;20061;-61
2022/04/03 19:35:15;;;;;;;36.25;22.42;;;;;;;4.36;66.09;97622.44;10299560;28;20066;-61
2022/04/03 19:40:14;;;;;;;32.97;20.92;;;;;;;5.02;66.04;97727.56;10299153;28;20467;-61
2022/04/03 19:45:14;;;;;;;29.15;19.50;;;;;;;4.22;65.96;97597.34;10298261;28;20057;-61
2022/04/03 19:50:13;;;;;;;25.75;17.50;;;;;;;4.62;66.69;97671.81;10259439;28;20551;-61
2022/04/03 19:55:12;;;;;;;26.77;18.25;;;;;;;4.77;65.24;97735.56;10257999;28;20061;-61
2022/04/03 20:00:12;;;;;;;27.45;17.15;;;;;;;4.65;65.89;97739.59;10273107;28;20033;-61
2022/04/03 20:05:11;;;;;;;31.65;19.80;;;;;;;4.89;66.37;97764.09;10297600;28;20061;-61
2022/04/03 20:10:10;;;;;;;27.95;18.88;;;;;;;5.01;67.05;97764.38;10293343;28;20065;-61
2022/04/03 20:15:10;;;;;;;28.10;19.45;;;;;;;5.03;67.19;97752.41;10293668;28;20065;-61
2022/04/03 20:20:10;;;;;;;31.20;20.33;;;;;;;5.14;66.84;97765.50;10294431;28;20058;-61
2022/04/03 20:25:09;;;;;;;;;;;;;;;5.00;65.73;97777.22;10294278;28;20076;-61
2022/04/03 20:30:09;;;;;;;26.88;18.83;;;;;;;4.69;64.06;97786.81;10292966;28;19964;-61
2022/04/03 20:35:08;;;;;;;20.50;14.50;;;;;;;4.39;59.57;97781.81;10293881;28;20486;-62
2022/04/03 20:40:07;;;;;;;22.35;13.43;;;;;;;3.92;58.51;97737.88;10294101;28;20511;-62
2022/04/03 20:45:06;;;;;;;;;;;;;;;4.06;59.12;97787.88;10292663;28;20456;-62
2022/04/03 20:50:06;;;;;;;18.60;13.18;;;;;;;3.90;59.12;97786.59;10308371;28;20306;-61
2022/04/03 20:55:05;;;;;;;;;;;;;;;3.76;58.64;97809.34;10293246;28;20057;-62
2022/04/03 21:00:07;;;;;;;16.10;11.60;;;;;;;3.79;57.89;97803.41;10291921;28;19968;-61
2022/04/03 21:05:06;;;;;;;21.30;14.98;;;;;;;3.76;58.32;97780.25;10293455;28;20050;-62
2022/04/03 21:10:05;;;;;;;18.77;13.10;;;;;;;3.94;57.89;97805.50;10292209;28;20530;-62
2022/04/03 21:15:05;;;;;;;21.52;15.23;;;;;;;4.12;58.09;97833.38;10291876;28;20072;-62
2022/04/03 21:20:05;;;;;;;20.00;14.40;;;;;;;4.11;58.71;97839.34;10292366;28;20455;-62
2022/04/03 21:25:05;;;;;;;18.40;13.45;;;;;;;4.05;58.57;97845.16;10291350;28;20084;-62
2022/04/03 21:30:05;;;;;;;21.45;15.40;;;;;;;3.67;59.80;97793.69;10291387;28;20057;-61
2022/04/03 21:35:06;;;;;;;21.33;15.15;;;;;;;3.62;58.40;97785.00;10291309;28;20123;-61
2022/04/03 21:40:06;;;;;;;18.95;13.15;;;;;;;3.73;57.93;97795.53;10291380;28;20072;-62
2022/04/03 21:45:06;;;;;;;16.27;11.52;;;;;;;3.79;57.48;97827.38;10291071;28;20050;-61
2022/04/03 21:50:05;;;;;;;18.63;13.63;;;;;;;3.63;56.85;97807.25;10290827;28;20546;-61
2022/04/03 21:55:04;;;;;;;16.08;10.90;;;;;;;4.08;56.68;97864.13;10292054;28;20065;-62
2022/04/03 22:00:04;;;;;;;;;;;;;;;4.14;57.22;97863.38;10290724;28;20460;-62
2022/04/03 22:05:04;;;;;;;17.70;12.82;;;;;;;4.02;57.36;97842.53;10290983;28;19948;-61
2022/04/03 22:10:03;;;;;;;20.33;12.88;;;;;;;4.27;57.26;97874.88;10294096;28;20088;-62
2022/04/03 22:15:02;;;;;;;18.35;13.65;;;;;;;4.16;56.93;97859.16;10290492;28;20061;-61
2022/04/03 22:20:01;;;;;;;20.17;13.70;;;;;;;4.23;57.55;97863.63;10290430;28;20483;-62
2022/04/03 22:25:01;;;;;;;20.83;13.50;;;;;;;4.35;57.31;97873.34;10290195;28;20179;-61
2022/04/03 22:30:00;;;;;;;18.85;12.35;;;;;;;4.27;57.48;97883.44;10292304;28;20077;-62
2022/04/03 22:35:00;;;;;;;19.02;12.18;;;;;;;3.78;58.24;97829.94;10296811;28;20034;-61
2022/04/03 22:39:59;;;;;;;18.52;12.82;;;;;;;3.96;58.09;97865.47;10301050;28;20065;-61
2022/04/03 22:44:58;;;;;;;19.27;12.85;;;;;;;3.92;58.13;97853.41;10300761;28;20113;-61
2022/04/03 22:49:57;;;;;;;29.50;15.45;;;;;;;3.72;58.55;97817.78;10300370;28;20050;-61
2022/04/03 22:54:56;;;;;;;23.17;15.43;;;;;;;3.84;58.70;97837.78;10301459;28;20026;-61
2022/04/03 22:59:55;;;;;;;17.60;12.80;;;;;;;4.20;58.63;97908.94;10300717;28;20032;-61
2022/04/03 23:04:54;;;;;;;19.95;14.00;;;;;;;3.64;58.53;97809.03;10299003;28;20033;-61
2022/04/03 23:09:53;;;;;;;19.05;13.63;;;;;;;4.26;58.64;97925.34;10297100;28;20069;-61
2022/04/03 23:14:52;;;;;;;19.95;14.15;;;;;;;4.08;59.32;97902.63;10296175;28;20038;-61
2022/04/03 23:19:54;;;;;;;19.38;13.65;;;;;;;3.86;60.11;97883.19;10296487;28;20029;-61
2022/04/03 23:24:53;;;;;;;20.15;14.65;;;;;;;4.00;60.27;97891.28;10296671;28;20065;-61